createdAt,value
2023-12-01T00:01:06.508Z,100.00
2023-12-01T00:11:10.786Z,100.00
2023-12-01T00:21:13.968Z,100.00
2023-12-01T00:31:18.177Z,100.00
2023-12-01T00:41:21.322Z,100.00
2023-12-01T00:51:25.457Z,100.00
2023-12-01T01:01:27.982Z,100.00
2023-12-01T01:11:32.070Z,100.00
2023-12-01T01:21:34.849Z,100.00
2023-12-01T01:31:39.182Z,100.00
2023-12-01T01:41:41.912Z,100.00
2023-12-01T01:51:46.867Z,100.00
2023-12-01T02:01:50.218Z,100.00
2023-12-01T02:11:54.712Z,100.00
2023-12-01T02:21:59.232Z,100.00
2023-12-01T02:32:02.193Z,100.00
2023-12-01T02:42:06.782Z,100.00
2023-12-01T02:52:09.603Z,100.00
2023-12-01T03:02:16.996Z,100.00
2023-12-01T03:12:21.993Z,100.00
2023-12-01T03:22:26.491Z,100.00
2023-12-01T03:32:29.285Z,100.00
2023-12-01T03:42:33.461Z,100.00
2023-12-01T03:52:36.222Z,100.00
2023-12-01T04:02:42.299Z,100.00
2023-12-01T04:12:46.113Z,100.00
2023-12-01T04:22:52.179Z,100.00
2023-12-01T04:32:57.436Z,100.00
2023-12-01T04:43:03.416Z,100.00
2023-12-01T04:53:06.172Z,100.00
2023-12-01T05:03:12.175Z,100.00
2023-12-01T05:13:15.520Z,100.00
2023-12-01T05:23:19.868Z,100.00
2023-12-01T05:33:24.162Z,100.00
2023-12-01T05:43:29.637Z,100.00
2023-12-01T05:53:35.354Z,100.00
2023-12-01T06:03:39.645Z,100.00
2023-12-01T06:13:42.803Z,100.00
2023-12-01T06:23:46.888Z,100.00
2023-12-01T06:33:49.673Z,100.00
2023-12-01T06:43:54.064Z,100.00
2023-12-01T06:53:57.332Z,100.00
2023-12-01T07:04:09.284Z,100.00
2023-12-01T07:14:13.535Z,100.00
2023-12-01T07:24:19.516Z,100.00
2023-12-01T07:34:22.421Z,99.13
2023-12-01T07:44:27.124Z,98.96
2023-12-01T07:54:29.921Z,99.33
2023-12-01T08:04:34.142Z,98.82
2023-12-01T08:14:37.050Z,98.96
2023-12-01T08:24:42.270Z,98.61
2023-12-01T08:34:45.836Z,96.45
2023-12-01T08:44:50.295Z,97.88
2023-12-01T08:54:53.108Z,98.00
2023-12-01T09:04:57.414Z,96.46
2023-12-01T09:15:00.244Z,96.81
2023-12-01T09:25:07.552Z,96.12
2023-12-01T09:35:10.806Z,93.87
2023-12-01T09:45:21.438Z,92.32
2023-12-01T09:55:24.312Z,90.32
2023-12-01T10:05:29.945Z,90.88
2023-12-01T10:15:34.285Z,93.16
2023-12-01T10:25:38.681Z,92.20
2023-12-01T10:35:41.248Z,91.10
2023-12-01T10:45:46.175Z,90.23
2023-12-01T10:55:49.875Z,90.44
2023-12-01T11:05:58.637Z,89.59
2023-12-01T11:16:02.345Z,90.24
2023-12-01T11:26:09.199Z,90.48
2023-12-01T11:36:22.490Z,89.44
2023-12-01T11:46:27.289Z,90.39
2023-12-01T11:56:30.257Z,88.43
2023-12-01T12:06:34.931Z,88.00
2023-12-01T12:16:37.874Z,86.68
2023-12-01T12:26:42.372Z,86.06
2023-12-01T12:36:47.798Z,85.02
2023-12-01T12:47:01.612Z,85.49
2023-12-01T12:57:04.874Z,84.80
2023-12-01T13:07:09.058Z,83.81
2023-12-01T13:17:11.769Z,83.72
2023-12-01T13:27:16.217Z,83.31
2023-12-01T13:37:18.779Z,82.77
2023-12-01T13:47:22.900Z,82.54
2023-12-01T13:57:25.849Z,82.71
2023-12-01T14:07:30.080Z,84.04
2023-12-01T14:17:33.146Z,84.10
2023-12-01T14:27:37.454Z,85.34
2023-12-01T14:37:40.501Z,85.17
2023-12-01T14:47:44.720Z,84.18
2023-12-01T14:57:47.585Z,84.26
2023-12-01T15:07:51.833Z,84.07
2023-12-01T15:17:55.076Z,84.73
2023-12-01T15:27:59.334Z,87.09
2023-12-01T15:38:02.130Z,84.96
2023-12-01T15:48:06.782Z,83.75
2023-12-01T15:58:10.040Z,84.33
2023-12-01T16:08:15.040Z,85.12
2023-12-01T16:18:20.163Z,85.02
2023-12-01T16:28:25.761Z,85.71
2023-12-01T16:38:28.886Z,85.79
2023-12-01T16:48:33.336Z,86.21
2023-12-01T16:58:36.249Z,85.91
2023-12-01T17:08:40.688Z,86.35
2023-12-01T17:18:43.764Z,86.19
2023-12-01T17:28:48.962Z,86.62
2023-12-01T17:38:51.821Z,86.93
2023-12-01T17:48:56.261Z,86.53
2023-12-01T17:59:00.896Z,86.71
2023-12-01T18:09:06.041Z,87.03
2023-12-01T18:19:10.324Z,86.48
2023-12-01T18:29:14.615Z,87.40
2023-12-01T18:39:18.784Z,88.34
2023-12-01T18:49:24.250Z,87.75
2023-12-01T18:59:27.188Z,88.67
2023-12-01T19:09:31.349Z,89.03
2023-12-01T19:19:34.356Z,87.84
2023-12-01T19:29:38.537Z,87.32
2023-12-01T19:39:41.493Z,87.10
2023-12-01T19:49:46.427Z,87.61
2023-12-01T19:59:49.661Z,87.52
2023-12-01T20:09:54.034Z,86.76
2023-12-01T20:19:56.962Z,87.42
2023-12-01T20:30:02.462Z,86.95
2023-12-01T20:40:06.773Z,86.42
2023-12-01T20:50:11.416Z,87.59
2023-12-01T21:00:15.199Z,87.34
2023-12-01T21:10:19.488Z,87.06
2023-12-01T21:20:23.550Z,86.57
2023-12-01T21:30:28.100Z,86.89
2023-12-01T21:40:31.611Z,86.85
2023-12-01T21:50:35.979Z,86.10
2023-12-01T22:00:38.796Z,85.33
2023-12-01T22:10:43.122Z,84.95
2023-12-01T22:20:46.076Z,84.74
2023-12-01T22:30:50.660Z,85.94
2023-12-01T22:40:53.476Z,86.73
2023-12-01T22:50:57.688Z,86.28
2023-12-01T23:01:03.351Z,85.41
2023-12-01T23:11:09.612Z,83.89
2023-12-01T23:21:12.485Z,84.35
2023-12-01T23:31:17.995Z,82.82
2023-12-01T23:41:20.713Z,83.82
2023-12-01T23:51:24.893Z,84.32
